Time;durP1;ratioP1;P1;durP2;ratioP2;P2;SDS_P1;SDS_P2;PMS_P1;PMS_P2;Temp;Humidity;BMP_temperature;BMP_pressure;BME280_temperature;BME280_humidity;BME280_pressure;Samples;Min_cycle;Max_cycle;Signal;HPM_P1;HPM_P2
2021/05/27 00:01:53;;;;;;;32.58;16.55;;;;;;;9.41;100.00;101253.47;3554841;40;20400;-65
2021/05/27 00:04:19;;;;;;;39.38;16.02;;;;;;;9.35;100.00;101252.09;3555681;40;20068;-67
2021/05/27 00:06:45;;;;;;;37.20;17.05;;;;;;;9.33;100.00;101251.34;3554142;40;20064;-66
2021/05/27 00:09:12;;;;;;;36.20;15.95;;;;;;;9.32;100.00;101248.78;3554014;40;20054;-66
2021/05/27 00:11:38;;;;;;;29.05;15.52;;;;;;;9.31;100.00;101247.94;3554735;40;20061;-65
2021/05/27 00:14:04;;;;;;;28.45;15.15;;;;;;;9.30;100.00;101251.59;3555808;40;20400;-66
2021/05/27 00:16:31;;;;;;;23.83;14.23;;;;;;;9.28;100.00;101250.88;3556215;40;20277;-67
2021/05/27 00:18:57;;;;;;;32.95;15.55;;;;;;;9.34;100.00;101249.53;3556729;40;20057;-66
2021/05/27 00:21:23;;;;;;;28.40;15.10;;;;;;;9.33;100.00;101262.09;3554396;40;20053;-65
2021/05/27 00:23:48;;;;;;;28.02;14.18;;;;;;;9.32;100.00;101264.91;3559610;40;20041;-66
2021/05/27 00:26:15;;;;;;;28.90;14.13;;;;;;;9.32;100.00;101262.22;3565257;40;20553;-66
2021/05/27 00:28:41;;;;;;;32.60;15.27;;;;;;;9.27;100.00;101260.72;3566201;40;20145;-65
2021/05/27 00:31:08;;;;;;;28.85;13.80;;;;;;;9.25;100.00;101264.53;3564426;40;20061;-65
2021/05/27 00:33:34;;;;;;;30.05;15.02;;;;;;;9.27;100.00;101259.88;3566085;40;20371;-65
2021/05/27 00:36:00;;;;;;;32.85;14.70;;;;;;;9.26;100.00;101258.16;3566635;40;20135;-66
2021/05/27 00:38:26;;;;;;;28.15;13.73;;;;;;;9.26;100.00;101274.28;3563974;40;20073;-66
2021/05/27 00:40:52;;;;;;;30.60;14.90;;;;;;;9.27;100.00;101266.09;3564075;40;20061;-65
2021/05/27 00:43:19;;;;;;;25.92;13.68;;;;;;;9.24;100.00;101270.88;3566259;40;20393;-66
2021/05/27 00:45:46;;;;;;;30.75;13.80;;;;;;;9.23;100.00;101267.34;3567239;40;20038;-65
2021/05/27 00:48:56;;;;;;;31.15;14.00;;;;;;;9.28;100.00;101269.66;3565892;40;20190;-65
2021/05/27 00:50:59;;;;;;;35.60;15.48;;;;;;;9.34;100.00;101281.78;3565561;40;20301;-65
2021/05/27 00:53:25;;;;;;;22.52;12.45;;;;;;;9.27;100.00;101276.00;3566453;40;20404;-64
2021/05/27 00:55:51;;;;;;;29.95;12.95;;;;;;;9.30;100.00;101273.06;3565583;40;20332;-65
2021/05/27 00:58:21;;;;;;;23.92;11.80;;;;;;;9.37;100.00;101277.00;3565827;40;20311;-65
2021/05/27 01:00:47;;;;;;;23.45;12.10;;;;;;;9.41;100.00;101267.75;3564625;40;20061;-65
2021/05/27 01:03:13;;;;;;;26.75;11.68;;;;;;;9.35;100.00;101268.22;3567760;40;20056;-66
2021/05/27 01:05:39;;;;;;;24.30;11.82;;;;;;;9.39;100.00;101275.06;3564432;40;20049;-65
2021/05/27 01:08:06;;;;;;;26.20;12.63;;;;;;;9.39;100.00;101272.38;3565130;40;20049;-66
2021/05/27 01:10:33;;;;;;;26.05;11.98;;;;;;;9.36;100.00;101280.66;3565975;40;20044;-67
2021/05/27 01:12:59;;;;;;;28.98;11.77;;;;;;;9.34;100.00;101279.94;3565810;40;20142;-65
2021/05/27 01:15:28;;;;;;;25.10;11.77;;;;;;;9.36;100.00;101272.59;3568564;40;20315;-65
2021/05/27 01:17:54;;;;;;;24.58;11.52;;;;;;;9.39;100.00;101276.88;3563854;40;20159;-64
2021/05/27 01:20:20;;;;;;;23.48;11.63;;;;;;;9.40;100.00;101282.13;3564055;40;20122;-65
2021/05/27 01:22:47;;;;;;;19.42;10.43;;;;;;;9.38;100.00;101283.22;3564700;40;20048;-64
2021/05/27 01:25:14;;;;;;;21.90;11.43;;;;;;;9.34;100.00;101289.84;3563766;40;20041;-64
2021/05/27 01:27:40;;;;;;;20.45;10.55;;;;;;;9.35;100.00;101284.34;3564583;40;20405;-64
2021/05/27 01:30:09;;;;;;;20.10;11.35;;;;;;;9.41;100.00;101296.44;3564897;40;20064;-65
2021/05/27 01:32:36;;;;;;;20.60;11.27;;;;;;;9.38;100.00;101288.59;3564964;40;20059;-65
2021/05/27 01:35:07;;;;;;;28.67;12.30;;;;;;;9.44;100.00;101296.22;3564613;40;20079;-64
2021/05/27 01:37:33;;;;;;;26.73;12.10;;;;;;;9.36;100.00;101301.31;3562904;40;20048;-64
2021/05/27 01:40:01;;;;;;;26.17;12.15;;;;;;;9.40;100.00;101300.94;3568132;40;20133;-65
2021/05/27 01:42:28;;;;;;;29.23;13.65;;;;;;;9.39;100.00;101307.31;3564646;40;20315;-66
2021/05/27 01:44:54;;;;;;;24.70;13.00;;;;;;;9.37;100.00;101301.19;3562235;40;20357;-64
2021/05/27 01:47:20;;;;;;;24.40;15.00;;;;;;;9.32;100.00;101306.06;3565161;40;20052;-64
2021/05/27 01:49:46;;;;;;;30.63;16.90;;;;;;;9.32;100.00;101306.06;3564620;40;20048;-64
2021/05/27 01:52:12;;;;;;;31.25;14.60;;;;;;;9.38;100.00;101302.91;3563827;40;20057;-64
2021/05/27 01:54:38;;;;;;;24.70;13.38;;;;;;;9.39;100.00;101306.44;3563680;40;20467;-64
2021/05/27 01:57:06;;;;;;;28.17;13.88;;;;;;;9.27;100.00;101303.69;3565993;40;20049;-65
2021/05/27 01:59:32;;;;;;;27.63;13.40;;;;;;;9.36;100.00;101307.53;3564200;40;20063;-64
2021/05/27 02:01:58;;;;;;;24.02;12.25;;;;;;;9.42;100.00;101306.19;3563829;40;20395;-64
2021/05/27 02:04:24;;;;;;;20.42;11.07;;;;;;;9.38;100.00;101307.41;3563742;40;20064;-63
2021/05/27 02:06:50;;;;;;;24.27;10.88;;;;;;;9.35;100.00;101304.94;3564404;40;20068;-64
2021/05/27 02:09:16;;;;;;;21.70;11.27;;;;;;;9.38;100.00;101302.03;3563708;40;20548;-64
2021/05/27 02:11:44;;;;;;;23.20;10.45;;;;;;;9.32;100.00;101306.06;3565704;40;20118;-64
2021/05/27 02:14:13;;;;;;;22.50;10.77;;;;;;;9.34;100.00;101303.25;3564888;40;20045;-64
2021/05/27 02:16:40;;;;;;;25.60;10.90;;;;;;;9.29;100.00;101307.16;3564868;40;20075;-64
2021/05/27 02:19:08;;;;;;;18.73;10.40;;;;;;;9.29;100.00;101312.53;3565251;40;20438;-65
2021/05/27 02:21:35;;;;;;;25.70;10.68;;;;;;;9.26;100.00;101311.88;3563936;40;20045;-64
2021/05/27 02:24:02;;;;;;;17.20;9.93;;;;;;;9.26;100.00;101306.50;3563320;40;20053;-64
2021/05/27 02:26:29;;;;;;;22.10;9.40;;;;;;;9.27;100.00;101310.91;3564529;40;21216;-64
2021/05/27 02:28:55;;;;;;;20.63;9.93;;;;;;;9.30;100.00;101313.38;3568783;40;20331;-64
2021/05/27 02:31:23;;;;;;;20.90;9.98;;;;;;;9.30;100.00;101318.75;3565289;40;20069;-64
2021/05/27 02:33:51;;;;;;;21.48;10.27;;;;;;;9.27;100.00;101318.97;3564291;40;20061;-64
2021/05/27 02:36:17;;;;;;;22.00;11.15;;;;;;;9.29;100.00;101319.75;3564795;40;20071;-64
2021/05/27 02:38:43;;;;;;;27.40;10.55;;;;;;;9.24;100.00;101316.53;3565991;40;20432;-64
2021/05/27 02:41:09;;;;;;;19.27;10.55;;;;;;;9.23;100.00;101320.19;3564269;40;20045;-65
2021/05/27 02:43:35;;;;;;;27.02;11.20;;;;;;;9.22;100.00;101316.66;3565855;40;20056;-65
2021/05/27 02:46:01;;;;;;;25.15;11.85;;;;;;;9.24;100.00;101316.53;3566950;40;20060;-65
2021/05/27 02:48:29;;;;;;;27.20;12.32;;;;;;;9.21;100.00;101319.44;3565189;40;20049;-64
2021/05/27 02:50:55;;;;;;;21.85;11.43;;;;;;;9.20;100.00;101323.97;3565132;40;20048;-64
2021/05/27 02:53:21;;;;;;;26.10;12.32;;;;;;;9.19;100.00;101321.41;3565878;40;25639;-64
2021/05/27 02:55:47;;;;;;;22.02;11.73;;;;;;;9.22;100.00;101326.53;3564623;40;20143;-67
2021/05/27 02:58:13;;;;;;;22.95;11.82;;;;;;;9.25;100.00;101320.94;3564738;40;20053;-65
2021/05/27 03:00:39;;;;;;;26.90;12.70;;;;;;;9.31;100.00;101322.31;3563529;40;20293;-65
2021/05/27 03:03:05;;;;;;;19.83;11.05;;;;;;;9.33;100.00;101318.50;3563433;40;20084;-65
2021/05/27 03:05:32;;;;;;;21.17;10.18;;;;;;;9.36;100.00;101326.31;3564798;40;20309;-64
2021/05/27 03:07:58;;;;;;;17.80;10.45;;;;;;;9.33;100.00;101328.41;3564243;40;20497;-65
2021/05/27 03:10:24;;;;;;;21.17;10.63;;;;;;;9.34;100.00;101325.59;3564629;40;20052;-65
2021/05/27 03:12:50;;;;;;;19.08;9.60;;;;;;;9.28;100.00;101326.06;3564074;40;20130;-65
2021/05/27 03:15:16;;;;;;;23.10;10.65;;;;;;;9.31;100.00;101325.84;3563983;40;20060;-65
2021/05/27 03:17:42;;;;;;;20.80;10.60;;;;;;;9.32;100.00;101332.06;3568293;40;20386;-66
2021/05/27 03:20:10;;;;;;;25.13;11.27;;;;;;;9.30;100.00;101332.16;3566075;40;20048;-66
2021/05/27 03:22:37;;;;;;;20.52;10.77;;;;;;;9.33;100.00;101334.63;3566652;40;20055;-65
2021/05/27 03:25:03;;;;;;;22.27;10.35;;;;;;;9.32;100.00;101324.88;3570245;40;20051;-65
2021/05/27 03:27:29;;;;;;;24.13;10.65;;;;;;;9.26;100.00;101325.31;3564622;40;20051;-67
2021/05/27 03:29:55;;;;;;;19.77;10.55;;;;;;;9.31;100.00;101339.25;3566739;40;20420;-65
2021/05/27 03:32:21;;;;;;;21.13;10.95;;;;;;;9.26;100.00;101333.38;3565979;40;20061;-65
2021/05/27 03:34:47;;;;;;;23.25;10.70;;;;;;;9.23;100.00;101336.28;3564241;40;20129;-65
2021/05/27 03:37:13;;;;;;;20.88;11.30;;;;;;;9.21;100.00;101335.56;3566110;40;20100;-66
2021/05/27 03:40:09;;;;;;;19.92;10.57;;;;;;;9.20;100.00;101339.22;3565047;40;20053;-65
2021/05/27 03:42:26;;;;;;;19.42;11.07;;;;;;;9.23;100.00;101333.59;3564517;40;20060;-65
2021/05/27 03:44:52;;;;;;;23.63;11.35;;;;;;;9.19;100.00;101342.88;3566910;40;20309;-65
2021/05/27 03:47:18;;;;;;;22.83;10.73;;;;;;;9.20;100.00;101339.22;3569254;40;20049;-66
2021/05/27 03:49:44;;;;;;;24.80;10.88;;;;;;;9.19;100.00;101338.38;3568472;40;20142;-65
2021/05/27 03:52:10;;;;;;;24.35;10.75;;;;;;;9.21;100.00;101346.31;3568373;40;20044;-66
2021/05/27 03:54:36;;;;;;;19.95;11.27;;;;;;;9.23;100.00;101339.84;3567786;40;20068;-66
2021/05/27 03:57:03;;;;;;;26.95;11.60;;;;;;;9.27;100.00;101341.31;3566286;40;20060;-65
2021/05/27 04:02:13;;;;;;;26.58;11.80;;;;;;;9.21;100.00;101340.94;3567248;40;20056;-65
2021/05/27 04:07:21;;;;;;;29.23;11.35;;;;;;;9.26;100.00;101350.38;3547212;40;20048;-64
2021/05/27 04:09:47;;;;;;;31.42;12.00;;;;;;;9.23;100.00;101349.72;3566722;40;20163;-64
2021/05/27 04:17:42;;;;;;;30.30;11.13;;;;;;;9.27;100.00;101364.63;3565086;40;20056;-66
2021/05/27 04:20:10;;;;;;;24.30;11.32;;;;;;;9.27;100.00;101365.50;3567011;40;20307;-65
2021/05/27 04:22:39;;;;;;;28.02;12.77;;;;;;;9.28;100.00;101358.31;3564677;40;20044;-66
2021/05/27 04:25:05;;;;;;;30.38;12.65;;;;;;;9.27;100.00;101372.69;3567396;40;20440;-64
2021/05/27 04:27:32;;;;;;;26.65;12.07;;;;;;;9.26;100.00;101360.22;3565124;40;20385;-66
2021/05/27 04:30:12;;;;;;;24.15;11.13;;;;;;;9.32;100.00;101362.47;3565739;40;20338;-65
2021/05/27 04:32:57;;;;;;;31.70;12.32;;;;;;;9.36;100.00;101366.63;3567697;40;20484;-67
2021/05/27 04:35:27;;;;;;;20.88;10.68;;;;;;;9.35;100.00;101364.94;3568673;40;20075;-66
2021/05/27 04:37:55;;;;;;;26.65;11.40;;;;;;;9.28;100.00;101361.00;3567207;40;20044;-66
2021/05/27 04:40:21;;;;;;;26.65;10.95;;;;;;;9.31;100.00;101363.44;3567381;40;20053;-66
2021/05/27 04:42:49;;;;;;;30.77;11.82;;;;;;;9.30;100.00;101367.09;3566350;40;20048;-67
2021/05/27 04:45:15;;;;;;;21.85;11.63;;;;;;;9.32;100.00;101359.78;3565482;40;20061;-65
2021/05/27 04:47:41;;;;;;;25.25;11.30;;;;;;;9.35;100.00;101364.94;3569772;40;20070;-65
2021/05/27 04:50:09;;;;;;;25.23;10.35;;;;;;;9.37;100.00;101372.88;3567052;40;20053;-65
2021/05/27 04:52:35;;;;;;;21.45;10.05;;;;;;;9.36;100.00;101368.47;3569686;40;20335;-64
2021/05/27 04:55:01;;;;;;;21.45;11.02;;;;;;;9.36;100.00;101374.69;3497742;22;20215;-66
2021/05/27 04:59:56;;;;;;;20.58;9.93;;;;;;;9.44;100.00;101374.13;3614374;22;20374;-67
2021/05/27 05:02:22;;;;;;;18.73;9.23;;;;;;;9.50;100.00;101387.09;3583163;39;20078;-64
2021/05/27 05:04:48;;;;;;;22.05;9.48;;;;;;;9.44;100.00;101384.88;3584755;39;20044;-66
2021/05/27 05:07:14;;;;;;;20.70;9.60;;;;;;;9.40;100.00;101386.91;3586318;39;20047;-66
2021/05/27 05:09:40;;;;;;;18.95;8.80;;;;;;;9.48;100.00;101389.03;3584168;39;20396;-67
2021/05/27 05:12:07;;;;;;;21.73;8.68;;;;;;;9.42;100.00;101382.31;3582756;39;20060;-65
2021/05/27 05:14:33;;;;;;;21.27;8.90;;;;;;;9.43;100.00;101386.69;3587754;39;20046;-66
2021/05/27 05:17:00;;;;;;;18.65;8.90;;;;;;;9.44;100.00;101391.09;3587334;39;20459;-67
2021/05/27 05:19:26;;;;;;;23.65;9.32;;;;;;;9.45;100.00;101386.56;3584052;39;20075;-64
2021/05/27 05:21:52;;;;;;;20.77;9.60;;;;;;;9.40;100.00;101389.59;3583660;39;20056;-65
2021/05/27 05:24:18;;;;;;;19.65;8.57;;;;;;;9.37;100.00;101395.22;3586222;39;20040;-66
2021/05/27 05:26:43;;;;;;;19.13;8.70;;;;;;;9.41;100.00;101396.69;3582567;39;20169;-65
2021/05/27 05:29:09;;;;;;;20.40;9.32;;;;;;;9.42;100.00;101390.38;3584470;39;20530;-65
2021/05/27 05:31:35;;;;;;;27.95;9.95;;;;;;;9.38;100.00;101396.94;3582554;39;20063;-65
2021/05/27 05:34:03;;;;;;;22.30;9.10;;;;;;;9.39;100.00;101395.97;3583336;39;20048;-65
2021/05/27 05:36:28;;;;;;;22.35;8.73;;;;;;;9.39;100.00;101392.41;3585711;39;20397;-66
2021/05/27 05:38:54;;;;;;;24.40;9.38;;;;;;;9.49;100.00;101393.44;3584336;39;20060;-64
2021/05/27 05:41:21;;;;;;;25.95;9.73;;;;;;;9.41;100.00;101391.31;3585208;39;20294;-66
2021/05/27 05:43:48;;;;;;;20.83;8.55;;;;;;;9.51;100.00;101396.88;3582562;39;20040;-66
2021/05/27 05:46:14;;;;;;;19.75;9.15;;;;;;;9.51;100.00;101387.94;3589703;39;20071;-65
2021/05/27 05:48:40;;;;;;;23.02;8.85;;;;;;;9.56;100.00;101396.53;3583946;39;20039;-64
2021/05/27 05:51:07;;;;;;;24.98;9.98;;;;;;;9.61;100.00;101402.38;3585174;39;20062;-65
2021/05/27 05:53:36;;;;;;;26.15;9.27;;;;;;;9.61;100.00;101402.38;3582516;39;20060;-66
2021/05/27 05:56:03;;;;;;;24.25;8.30;;;;;;;9.54;100.00;101401.13;3581564;39;20360;-66
2021/05/27 05:58:29;;;;;;;23.25;8.73;;;;;;;9.54;100.00;101401.13;3582016;39;20052;-65
2021/05/27 06:00:55;;;;;;;20.00;8.35;;;;;;;9.53;100.00;101404.81;3581620;39;20164;-66
2021/05/27 06:03:22;;;;;;;18.35;8.35;;;;;;;9.53;100.00;101410.19;3582365;39;20115;-65
2021/05/27 06:05:48;;;;;;;18.63;8.73;;;;;;;9.55;100.00;101409.09;3592055;39;20136;-65
2021/05/27 06:08:14;;;;;;;21.77;8.48;;;;;;;9.55;100.00;101414.47;3590949;39;20151;-66
2021/05/27 06:10:41;;;;;;;23.73;9.00;;;;;;;9.62;100.00;101409.50;3594737;39;20040;-67
2021/05/27 06:13:07;;;;;;;23.85;9.13;;;;;;;9.60;100.00;101412.28;3591855;39;20036;-67
2021/05/27 06:15:33;;;;;;;22.52;9.30;;;;;;;9.55;100.00;101425.22;3592268;39;20148;-66
2021/05/27 06:18:00;;;;;;;19.58;8.20;;;;;;;9.53;100.00;101423.63;3587539;39;21504;-66
2021/05/27 06:20:27;;;;;;;27.88;9.10;;;;;;;9.61;100.00;101429.25;3581841;39;20983;-67
2021/05/27 06:22:53;;;;;;;21.30;8.75;;;;;;;9.63;100.00;101424.66;3580470;39;20062;-65
2021/05/27 06:25:21;;;;;;;21.20;8.55;;;;;;;9.69;100.00;101426.00;3583049;39;20130;-67
2021/05/27 06:27:48;;;;;;;27.48;9.07;;;;;;;9.72;100.00;101431.16;3581527;39;20052;-65
2021/05/27 06:30:15;;;;;;;24.60;9.70;;;;;;;9.73;100.00;101435.53;3577989;39;20388;-66
2021/05/27 06:32:41;;;;;;;25.67;9.25;;;;;;;9.72;100.00;101436.53;3575548;39;20073;-66
2021/05/27 06:35:09;;;;;;;20.58;8.15;;;;;;;9.75;100.00;101437.16;3577513;39;20055;-66
2021/05/27 06:37:37;;;;;;;22.08;9.10;;;;;;;9.62;100.00;101439.91;3577837;39;20076;-65
2021/05/27 06:40:04;;;;;;;26.73;9.73;;;;;;;9.59;100.00;101440.13;3580725;39;20054;-65
2021/05/27 06:42:31;;;;;;;25.58;8.55;;;;;;;9.61;100.00;101446.28;3579543;39;20056;-67
2021/05/27 06:44:57;;;;;;;21.17;7.65;;;;;;;9.58;100.00;101440.25;3577979;39;20044;-66
2021/05/27 06:47:22;;;;;;;23.75;8.40;;;;;;;9.58;100.00;101440.25;3587500;39;20725;-66
2021/05/27 06:49:48;;;;;;;18.70;7.45;;;;;;;9.63;100.00;101440.78;3580770;39;20437;-66
2021/05/27 06:52:14;;;;;;;25.17;7.65;;;;;;;9.60;100.00;101446.38;3582656;39;20064;-65
2021/05/27 06:54:40;;;;;;;21.48;8.02;;;;;;;9.60;100.00;101441.00;3582846;39;20098;-66
2021/05/27 06:57:06;;;;;;;20.67;7.97;;;;;;;9.64;100.00;101451.41;3582154;39;20059;-65
2021/05/27 06:59:33;;;;;;;19.05;8.40;;;;;;;9.57;100.00;101446.59;3584797;39;20081;-65
2021/05/27 07:01:59;;;;;;;20.50;7.88;;;;;;;9.70;100.00;101451.91;3583970;39;20321;-65
2021/05/27 07:04:26;;;;;;;17.65;7.63;;;;;;;9.66;100.00;101453.97;3588341;39;20052;-66
2021/05/27 07:06:52;;;;;;;20.77;8.15;;;;;;;9.71;100.00;101457.16;3581623;39;20055;-67
2021/05/27 07:09:19;;;;;;;17.35;6.68;;;;;;;9.71;100.00;101465.22;3582403;39;20056;-67
2021/05/27 07:11:45;;;;;;;18.92;7.28;;;;;;;9.70;100.00;101460.84;3583680;39;20123;-66
2021/05/27 07:14:11;;;;;;;18.13;7.63;;;;;;;9.70;100.00;101457.28;3583384;39;20062;-66
2021/05/27 07:16:38;;;;;;;15.00;6.78;;;;;;;9.77;100.00;101464.75;3581795;39;20417;-65
2021/05/27 07:19:04;;;;;;;17.65;7.40;;;;;;;9.75;100.00;101472.09;3592901;39;20056;-65
2021/05/27 07:21:30;;;;;;;20.48;7.32;;;;;;;9.77;100.00;101472.81;3595999;39;20044;-66
2021/05/27 07:23:56;;;;;;;21.88;7.60;;;;;;;9.73;100.00;101466.00;3596920;39;20036;-66
2021/05/27 07:26:22;;;;;;;14.82;6.95;;;;;;;9.75;100.00;101468.56;3594606;39;20617;-65
2021/05/27 07:28:48;;;;;;;20.52;7.32;;;;;;;9.74;100.00;101473.06;3596133;39;20042;-66
2021/05/27 07:31:14;;;;;;;17.80;7.10;;;;;;;9.79;100.00;101472.72;3595132;39;20044;-66
2021/05/27 07:33:41;;;;;;;23.30;8.10;;;;;;;9.77;100.00;101483.56;3594942;39;20063;-66
2021/05/27 07:36:07;;;;;;;27.10;7.53;;;;;;;9.72;100.00;101483.09;3595432;39;20424;-66
2021/05/27 07:38:33;;;;;;;23.00;7.38;;;;;;;9.71;100.00;101473.28;3594831;39;20051;-65
2021/05/27 07:41:00;;;;;;;23.00;7.93;;;;;;;9.76;100.00;101481.88;3595732;39;20160;-67
2021/05/27 07:43:26;;;;;;;21.08;7.72;;;;;;;9.72;100.00;101490.31;3595959;39;20567;-67
2021/05/27 07:45:53;;;;;;;26.05;7.75;;;;;;;9.70;100.00;101490.41;3595668;39;20044;-67
2021/05/27 07:48:19;;;;;;;23.50;7.82;;;;;;;9.65;100.00;101487.19;3594799;39;20062;-66
2021/05/27 07:50:46;;;;;;;23.85;8.45;;;;;;;9.67;100.00;101487.09;3594455;39;20048;-67
2021/05/27 07:53:16;;;;;;;25.77;9.25;;;;;;;9.71;100.00;101492.09;3592320;39;20060;-67
2021/05/27 07:55:42;;;;;;;25.38;8.25;;;;;;;9.76;100.00;101494.44;3592226;39;20056;-67
2021/05/27 07:58:08;;;;;;;19.73;7.97;;;;;;;9.87;100.00;101496.34;3594863;39;20048;-68
2021/05/27 08:00:34;;;;;;;23.98;8.30;;;;;;;9.92;100.00;101496.84;3596268;39;20117;-66
2021/05/27 08:03:00;;;;;;;23.58;8.75;;;;;;;9.86;100.00;101498.16;3595181;39;20052;-67
2021/05/27 08:05:27;;;;;;;18.85;8.32;;;;;;;9.89;100.00;101494.38;3595521;39;20056;-66
2021/05/27 08:07:54;;;;;;;28.85;8.35;;;;;;;9.92;100.00;101502.22;3596944;39;20044;-67
2021/05/27 08:10:20;;;;;;;23.95;8.48;;;;;;;9.94;100.00;101501.13;3597022;39;20086;-67
2021/05/27 08:12:46;;;;;;;22.65;8.20;;;;;;;10.05;100.00;101504.84;3596677;39;20335;-66
2021/05/27 08:15:12;;;;;;;25.60;8.45;;;;;;;10.05;100.00;101508.38;3596554;39;20107;-67
2021/05/27 08:17:38;;;;;;;26.98;9.02;;;;;;;10.02;100.00;101500.56;3597035;39;20045;-67
2021/05/27 08:20:13;;;;;;;26.33;9.32;;;;;;;10.00;100.00;101500.66;3622082;22;20390;-67
2021/05/27 08:22:40;;;;;;;26.40;9.20;;;;;;;10.09;100.00;101515.25;3582201;40;20041;-66
2021/05/27 08:25:08;;;;;;;21.50;8.20;;;;;;;9.99;100.00;101515.06;3582813;40;20291;-66
2021/05/27 08:27:34;;;;;;;23.90;8.45;;;;;;;10.05;100.00;101519.13;3582075;40;20113;-68
2021/05/27 08:30:00;;;;;;;26.80;8.50;;;;;;;10.03;100.00;101521.09;3581576;40;20052;-66
2021/05/27 08:32:27;;;;;;;24.02;9.13;;;;;;;10.01;100.00;101525.72;3580768;40;20178;-67
2021/05/27 08:34:53;;;;;;;28.25;8.27;;;;;;;10.10;100.00;101530.44;3580609;40;20160;-67
2021/05/27 08:37:19;;;;;;;22.95;8.43;;;;;;;10.13;100.00;101526.66;3580765;40;20056;-66
2021/05/27 08:39:45;;;;;;;21.55;9.27;;;;;;;10.12;100.00;101531.16;3581997;40;20422;-66
2021/05/27 08:42:12;;;;;;;24.85;9.00;;;;;;;10.38;100.00;101522.09;3578643;40;20052;-67
2021/05/27 08:44:41;;;;;;;25.80;9.25;;;;;;;10.47;100.00;101529.47;3579815;40;20055;-64
2021/05/27 08:47:07;;;;;;;20.55;7.97;;;;;;;10.51;100.00;101537.19;3580224;40;20410;-60
2021/05/27 08:49:35;;;;;;;19.23;6.90;;;;;;;10.48;100.00;101526.66;3580200;40;20424;-58
2021/05/27 08:52:01;;;;;;;17.58;6.72;;;;;;;10.56;100.00;101531.44;3580535;40;20119;-59
2021/05/27 08:54:27;;;;;;;22.38;7.47;;;;;;;10.59;100.00;101536.56;3579745;40;20152;-63
2021/05/27 08:56:53;;;;;;;19.55;7.65;;;;;;;10.59;100.00;101543.81;3580900;40;20137;-68
2021/05/27 08:59:20;;;;;;;22.58;8.27;;;;;;;10.71;100.00;101533.91;3581332;40;20551;-67
2021/05/27 09:02:03;;;;;;;18.27;6.57;;;;;;;10.71;100.00;101536.59;3580870;40;20043;-67
2021/05/27 09:04:29;;;;;;;25.02;8.23;;;;;;;10.69;100.00;101539.41;3580951;40;20056;-67
2021/05/27 09:06:56;;;;;;;18.85;7.47;;;;;;;10.66;100.00;101542.34;3581302;40;20184;-67
2021/05/27 09:09:22;;;;;;;23.77;7.95;;;;;;;10.62;100.00;101544.41;3580417;40;20097;-67
2021/05/27 09:11:48;;;;;;;23.15;7.68;;;;;;;10.50;100.00;101556.13;3581366;40;20051;-67
2021/05/27 09:14:15;;;;;;;28.30;8.63;;;;;;;10.26;100.00;101548.94;3580715;40;20157;-67
2021/05/27 09:16:58;;;;;;;21.42;8.18;;;;;;;10.37;100.00;101560.75;3580529;40;20393;-67
2021/05/27 09:19:24;;;;;;;20.48;7.80;;;;;;;10.34;100.00;101551.06;3581240;40;20052;-67
2021/05/27 09:21:51;;;;;;;20.48;8.02;;;;;;;10.34;100.00;101562.69;3581543;40;20476;-67
2021/05/27 09:24:17;;;;;;;21.13;7.53;;;;;;;10.42;100.00;101551.31;3581019;40;20074;-67
2021/05/27 09:26:51;;;;;;;24.25;8.45;;;;;;;10.43;100.00;101566.50;3580850;40;20171;-67
2021/05/27 09:29:17;;;;;;;20.88;8.20;;;;;;;10.27;100.00;101561.41;3579657;40;20044;-66
2021/05/27 09:31:57;;;;;;;19.30;7.00;;;;;;;10.34;100.00;101562.69;3582824;40;20049;-66
2021/05/27 09:34:45;;;;;;;22.38;7.57;;;;;;;10.45;100.00;101567.28;3582020;40;20056;-67
2021/05/27 09:37:22;;;;;;;19.90;7.40;;;;;;;10.48;100.00;101567.03;3580568;40;20110;-67
2021/05/27 09:39:49;;;;;;;23.70;9.00;;;;;;;10.48;100.00;101569.72;3580845;40;20115;-67
2021/05/27 09:42:16;;;;;;;15.15;8.15;;;;;;;10.50;100.00;101574.97;3581719;40;20052;-67
2021/05/27 09:44:42;;;;;;;16.80;7.55;;;;;;;10.59;100.00;101576.09;3580078;40;20092;-66
2021/05/27 09:47:09;;;;;;;17.13;6.75;;;;;;;10.59;100.00;101576.09;3581519;40;20068;-67
2021/05/27 09:49:35;;;;;;;23.15;6.97;;;;;;;10.51;100.00;101572.16;3582602;40;20435;-66
2021/05/27 09:52:15;;;;;;;14.63;6.57;;;;;;;10.42;100.00;101570.16;3581932;40;20028;-67
2021/05/27 09:54:53;;;;;;;18.08;7.15;;;;;;;10.39;100.00;101577.63;3581967;40;20057;-67
2021/05/27 09:57:20;;;;;;;16.55;6.65;;;;;;;10.45;100.00;101580.72;3581470;40;20438;-67
2021/05/27 09:59:46;;;;;;;19.80;8.38;;;;;;;10.39;100.00;101585.69;3581824;40;20094;-67
2021/05/27 10:02:15;;;;;;;18.05;6.90;;;;;;;10.41;100.00;101584.63;3581581;40;20111;-67
2021/05/27 10:05:02;;;;;;;12.63;7.15;;;;;;;10.36;100.00;101592.16;3581927;40;20593;-67
2021/05/27 10:07:37;;;;;;;11.98;6.63;;;;;;;10.48;100.00;101595.75;3580996;40;20075;-67
2021/05/27 10:10:04;;;;;;;14.95;6.93;;;;;;;10.52;100.00;101598.09;3581157;40;20049;-68
2021/05/27 10:12:37;;;;;;;14.23;6.55;;;;;;;10.56;100.00;101612.19;3582053;40;20043;-67
2021/05/27 10:15:04;;;;;;;14.88;6.97;;;;;;;10.65;100.00;101606.09;3581271;40;20477;-67
2021/05/27 10:20:38;;;;;;;24.42;8.27;;;;;;;10.82;100.00;101604.78;3571245;40;20324;-67
2021/05/27 10:23:06;;;;;;;18.45;7.95;;;;;;;10.97;100.00;101599.19;3570787;40;20137;-66
2021/05/27 10:25:32;;;;;;;21.70;8.00;;;;;;;11.20;100.00;101609.00;3574505;40;20114;-67
2021/05/27 10:28:02;;;;;;;20.95;8.55;;;;;;;11.50;100.00;101610.22;3573776;40;20098;-67
2021/05/27 10:30:28;;;;;;;21.52;8.68;;;;;;;11.85;100.00;101609.19;3573408;40;20060;-67
2021/05/27 10:33:00;;;;;;;22.77;8.00;;;;;;;12.18;100.00;101604.69;3575106;40;20077;-67
2021/05/27 10:35:46;;;;;;;17.65;7.25;;;;;;;12.00;100.00;101607.09;3575057;40;20296;-67
2021/05/27 10:38:12;;;;;;;15.70;6.25;;;;;;;12.15;100.00;101609.50;3574504;40;20059;-66
2021/05/27 10:40:40;;;;;;;13.57;6.80;;;;;;;12.32;100.00;101608.09;3573662;40;20048;-67
2021/05/27 10:43:10;;;;;;;17.65;5.68;;;;;;;12.43;100.00;101613.44;3573584;40;20049;-67
2021/05/27 10:45:56;;;;;;;;;;;;;;;12.39;100.00;101611.97;3575544;40;20041;-66
2021/05/27 10:48:26;;;;;;;18.20;6.88;;;;;;;12.46;100.00;101612.34;3572779;40;19961;-67
2021/05/27 10:51:15;;;;;;;23.60;6.70;;;;;;;12.34;100.00;101614.22;3573256;40;20068;-66
2021/05/27 10:53:51;;;;;;;;;;;;;;;12.18;100.00;101620.91;3572214;40;20057;-67
2021/05/27 10:56:19;;;;;;;23.95;7.13;;;;;;;12.24;100.00;101620.38;3571400;40;20272;-67
2021/05/27 10:59:12;;;;;;;22.42;6.70;;;;;;;12.14;100.00;101622.13;3574761;40;20304;-67
2021/05/27 11:01:52;;;;;;;19.15;6.30;;;;;;;12.02;100.00;101628.56;3574285;40;20329;-67
2021/05/27 11:04:27;;;;;;;18.00;6.53;;;;;;;11.76;100.00;101631.50;3572989;40;20059;-67
2021/05/27 11:07:23;;;;;;;17.42;6.18;;;;;;;11.60;100.00;101641.81;3574718;40;20558;-66
2021/05/27 11:09:51;;;;;;;15.43;5.35;;;;;;;11.72;100.00;101643.53;3574677;40;20126;-67
2021/05/27 11:12:20;;;;;;;14.30;4.07;;;;;;;11.62;100.00;101645.28;3574479;40;20056;-67
2021/05/27 11:15:02;;;;;;;13.40;3.70;;;;;;;11.81;100.00;101645.50;3573463;40;20049;-67
2021/05/27 11:17:28;;;;;;;8.07;3.58;;;;;;;11.81;100.00;101644.63;3574768;40;20607;-67
2021/05/27 11:19:56;;;;;;;9.88;4.03;;;;;;;11.86;100.00;101651.34;3574641;40;20057;-67
2021/05/27 11:22:55;;;;;;;10.98;4.15;;;;;;;11.77;100.00;101651.25;3574111;40;20100;-67
2021/05/27 11:25:34;;;;;;;12.18;2.67;;;;;;;11.56;100.00;101657.41;3566386;40;20412;-68
2021/05/27 11:28:24;;;;;;;11.55;2.92;;;;;;;11.67;100.00;101659.22;3575106;40;20048;-68
2021/05/27 11:30:53;;;;;;;10.52;2.75;;;;;;;11.90;100.00;101666.31;3574829;40;20057;-68
2021/05/27 11:33:40;;;;;;;8.07;2.78;;;;;;;11.83;100.00;101662.38;3573303;40;20064;-68